sensor_id;sensor_type;location;lat;lon;timestamp;P1;durP1;ratioP1;P2;durP2;ratioP2
54263;SDS011;40178;53.042;6.406;2023-04-25T00:01:03;10.65;;;3.00;;
54263;SDS011;40178;53.042;6.406;2023-04-25T00:03:33;12.32;;;3.15;;
54263;SDS011;40178;53.042;6.406;2023-04-25T00:06:00;15.52;;;3.42;;
54263;SDS011;40178;53.042;6.406;2023-04-25T00:08:29;16.63;;;3.60;;
54263;SDS011;40178;53.042;6.406;2023-04-25T00:10:56;10.25;;;2.78;;
54263;SDS011;40178;53.042;6.406;2023-04-25T00:13:22;13.60;;;2.83;;
54263;SDS011;40178;53.042;6.406;2023-04-25T00:15:48;10.98;;;3.10;;
54263;SDS011;40178;53.042;6.406;2023-04-25T00:18:14;11.95;;;2.85;;
54263;SDS011;40178;53.042;6.406;2023-04-25T00:20:40;8.20;;;2.90;;
54263;SDS011;40178;53.042;6.406;2023-04-25T00:23:12;11.13;;;2.75;;
54263;SDS011;40178;53.042;6.406;2023-04-25T00:25:46;10.27;;;2.60;;
54263;SDS011;40178;53.042;6.406;2023-04-25T00:28:13;12.15;;;3.35;;
54263;SDS011;40178;53.042;6.406;2023-04-25T00:30:40;9.43;;;2.65;;
54263;SDS011;40178;53.042;6.406;2023-04-25T00:33:06;15.55;;;3.50;;
54263;SDS011;40178;53.042;6.406;2023-04-25T00:35:33;15.70;;;3.28;;
54263;SDS011;40178;53.042;6.406;2023-04-25T00:37:59;16.40;;;3.28;;
54263;SDS011;40178;53.042;6.406;2023-04-25T00:40:25;11.02;;;3.10;;
54263;SDS011;40178;53.042;6.406;2023-04-25T00:42:54;11.73;;;4.20;;
54263;SDS011;40178;53.042;6.406;2023-04-25T00:45:20;11.10;;;2.72;;
54263;SDS011;40178;53.042;6.406;2023-04-25T00:47:46;8.80;;;2.80;;
54263;SDS011;40178;53.042;6.406;2023-04-25T00:50:12;15.20;;;3.00;;
54263;SDS011;40178;53.042;6.406;2023-04-25T00:52:39;10.55;;;2.72;;
54263;SDS011;40178;53.042;6.406;2023-04-25T00:55:07;11.35;;;2.30;;
54263;SDS011;40178;53.042;6.406;2023-04-25T00:57:34;10.32;;;2.50;;
54263;SDS011;40178;53.042;6.406;2023-04-25T01:00:00;16.25;;;2.42;;
54263;SDS011;40178;53.042;6.406;2023-04-25T01:02:26;15.52;;;3.10;;
54263;SDS011;40178;53.042;6.406;2023-04-25T01:04:52;11.32;;;2.65;;
54263;SDS011;40178;53.042;6.406;2023-04-25T01:07:18;6.70;;;2.58;;
54263;SDS011;40178;53.042;6.406;2023-04-25T01:09:45;8.90;;;2.35;;
54263;SDS011;40178;53.042;6.406;2023-04-25T01:12:11;10.73;;;2.72;;
54263;SDS011;40178;53.042;6.406;2023-04-25T01:14:37;9.25;;;2.78;;
54263;SDS011;40178;53.042;6.406;2023-04-25T01:17:03;12.00;;;2.45;;
54263;SDS011;40178;53.042;6.406;2023-04-25T01:19:29;9.25;;;2.40;;
54263;SDS011;40178;53.042;6.406;2023-04-25T01:21:55;8.35;;;2.33;;
54263;SDS011;40178;53.042;6.406;2023-04-25T01:24:21;13.13;;;2.50;;
54263;SDS011;40178;53.042;6.406;2023-04-25T01:26:46;11.75;;;2.67;;
54263;SDS011;40178;53.042;6.406;2023-04-25T01:29:15;10.57;;;2.53;;
54263;SDS011;40178;53.042;6.406;2023-04-25T01:31:42;10.70;;;2.50;;
54263;SDS011;40178;53.042;6.406;2023-04-25T01:34:09;11.13;;;1.83;;
54263;SDS011;40178;53.042;6.406;2023-04-25T01:36:35;5.82;;;2.60;;
54263;SDS011;40178;53.042;6.406;2023-04-25T01:39:00;11.98;;;2.22;;
54263;SDS011;40178;53.042;6.406;2023-04-25T01:41:26;8.20;;;1.95;;
54263;SDS011;40178;53.042;6.406;2023-04-25T01:43:52;10.48;;;2.25;;
54263;SDS011;40178;53.042;6.406;2023-04-25T01:46:18;9.05;;;2.15;;
54263;SDS011;40178;53.042;6.406;2023-04-25T01:48:44;14.63;;;2.10;;
54263;SDS011;40178;53.042;6.406;2023-04-25T01:51:10;9.30;;;2.38;;
54263;SDS011;40178;53.042;6.406;2023-04-25T01:53:36;9.07;;;3.17;;
54263;SDS011;40178;53.042;6.406;2023-04-25T01:56:02;8.15;;;1.80;;
54263;SDS011;40178;53.042;6.406;2023-04-25T01:58:28;10.60;;;2.58;;
54263;SDS011;40178;53.042;6.406;2023-04-25T02:00:54;11.60;;;2.28;;
54263;SDS011;40178;53.042;6.406;2023-04-25T02:03:20;10.98;;;2.55;;
54263;SDS011;40178;53.042;6.406;2023-04-25T02:05:45;7.75;;;1.67;;
54263;SDS011;40178;53.042;6.406;2023-04-25T02:08:11;10.80;;;2.65;;
54263;SDS011;40178;53.042;6.406;2023-04-25T02:10:36;8.60;;;1.85;;
54263;SDS011;40178;53.042;6.406;2023-04-25T02:13:02;9.98;;;2.03;;
54263;SDS011;40178;53.042;6.406;2023-04-25T02:15:29;12.77;;;2.72;;
54263;SDS011;40178;53.042;6.406;2023-04-25T02:17:55;10.98;;;2.53;;
54263;SDS011;40178;53.042;6.406;2023-04-25T02:20:21;8.30;;;2.60;;
54263;SDS011;40178;53.042;6.406;2023-04-25T02:22:48;14.20;;;2.50;;
54263;SDS011;40178;53.042;6.406;2023-04-25T02:25:14;13.70;;;2.90;;
54263;SDS011;40178;53.042;6.406;2023-04-25T02:27:41;12.45;;;3.28;;
54263;SDS011;40178;53.042;6.406;2023-04-25T02:30:07;11.30;;;3.00;;
54263;SDS011;40178;53.042;6.406;2023-04-25T02:32:33;10.65;;;1.88;;
54263;SDS011;40178;53.042;6.406;2023-04-25T02:35:00;9.52;;;2.40;;
54263;SDS011;40178;53.042;6.406;2023-04-25T02:37:29;8.93;;;2.35;;
54263;SDS011;40178;53.042;6.406;2023-04-25T02:39:55;11.57;;;2.38;;
54263;SDS011;40178;53.042;6.406;2023-04-25T02:42:21;6.25;;;1.70;;
54263;SDS011;40178;53.042;6.406;2023-04-25T02:44:46;7.35;;;2.08;;
54263;SDS011;40178;53.042;6.406;2023-04-25T02:47:12;11.50;;;2.10;;
54263;SDS011;40178;53.042;6.406;2023-04-25T02:49:37;6.57;;;1.77;;
54263;SDS011;40178;53.042;6.406;2023-04-25T02:52:03;9.95;;;2.55;;
54263;SDS011;40178;53.042;6.406;2023-04-25T02:54:29;8.50;;;1.60;;
54263;SDS011;40178;53.042;6.406;2023-04-25T02:56:55;11.02;;;1.83;;
54263;SDS011;40178;53.042;6.406;2023-04-25T02:59:21;7.40;;;1.75;;
54263;SDS011;40178;53.042;6.406;2023-04-25T03:01:46;8.68;;;1.67;;
54263;SDS011;40178;53.042;6.406;2023-04-25T03:04:12;7.70;;;2.15;;
54263;SDS011;40178;53.042;6.406;2023-04-25T03:06:38;8.93;;;1.90;;
54263;SDS011;40178;53.042;6.406;2023-04-25T03:09:03;6.65;;;1.40;;
54263;SDS011;40178;53.042;6.406;2023-04-25T03:11:29;7.00;;;1.60;;
54263;SDS011;40178;53.042;6.406;2023-04-25T03:13:55;9.20;;;1.48;;
54263;SDS011;40178;53.042;6.406;2023-04-25T03:16:21;5.45;;;1.08;;
54263;SDS011;40178;53.042;6.406;2023-04-25T03:18:47;7.28;;;1.15;;
54263;SDS011;40178;53.042;6.406;2023-04-25T03:21:12;6.10;;;0.77;;
54263;SDS011;40178;53.042;6.406;2023-04-25T03:23:38;3.20;;;0.90;;
54263;SDS011;40178;53.042;6.406;2023-04-25T03:26:04;6.15;;;0.95;;
54263;SDS011;40178;53.042;6.406;2023-04-25T03:28:29;4.97;;;0.82;;
54263;SDS011;40178;53.042;6.406;2023-04-25T03:30:55;2.85;;;0.70;;
54263;SDS011;40178;53.042;6.406;2023-04-25T03:33:21;2.83;;;0.50;;
54263;SDS011;40178;53.042;6.406;2023-04-25T03:35:47;4.88;;;0.85;;
54263;SDS011;40178;53.042;6.406;2023-04-25T03:38:12;4.75;;;0.82;;
54263;SDS011;40178;53.042;6.406;2023-04-25T03:40:38;5.20;;;1.15;;
54263;SDS011;40178;53.042;6.406;2023-04-25T03:43:03;2.97;;;0.60;;
54263;SDS011;40178;53.042;6.406;2023-04-25T03:45:30;7.63;;;1.13;;
54263;SDS011;40178;53.042;6.406;2023-04-25T03:47:56;2.78;;;0.90;;
54263;SDS011;40178;53.042;6.406;2023-04-25T03:50:21;2.88;;;0.82;;
54263;SDS011;40178;53.042;6.406;2023-04-25T03:52:47;6.63;;;0.77;;
54263;SDS011;40178;53.042;6.406;2023-04-25T03:55:12;2.35;;;0.70;;
54263;SDS011;40178;53.042;6.406;2023-04-25T03:57:38;4.63;;;0.93;;
54263;SDS011;40178;53.042;6.406;2023-04-25T04:00:04;5.55;;;0.95;;
54263;SDS011;40178;53.042;6.406;2023-04-25T04:02:31;4.88;;;0.93;;
54263;SDS011;40178;53.042;6.406;2023-04-25T04:04:58;6.50;;;0.98;;
54263;SDS011;40178;53.042;6.406;2023-04-25T04:07:23;9.52;;;1.60;;
54263;SDS011;40178;53.042;6.406;2023-04-25T04:09:49;4.60;;;0.90;;
54263;SDS011;40178;53.042;6.406;2023-04-25T04:12:15;3.95;;;1.05;;
54263;SDS011;40178;53.042;6.406;2023-04-25T04:14:40;6.70;;;1.40;;
54263;SDS011;40178;53.042;6.406;2023-04-25T04:17:06;7.15;;;1.10;;
54263;SDS011;40178;53.042;6.406;2023-04-25T04:19:31;8.48;;;1.17;;
54263;SDS011;40178;53.042;6.406;2023-04-25T04:21:57;5.60;;;1.42;;
54263;SDS011;40178;53.042;6.406;2023-04-25T04:24:23;4.72;;;1.25;;
54263;SDS011;40178;53.042;6.406;2023-04-25T04:26:49;3.38;;;0.90;;
54263;SDS011;40178;53.042;6.406;2023-04-25T04:29:15;6.10;;;0.70;;
54263;SDS011;40178;53.042;6.406;2023-04-25T04:31:47;4.53;;;0.77;;
54263;SDS011;40178;53.042;6.406;2023-04-25T04:34:13;4.80;;;1.25;;
54263;SDS011;40178;53.042;6.406;2023-04-25T04:36:39;3.17;;;0.80;;
54263;SDS011;40178;53.042;6.406;2023-04-25T04:39:05;6.38;;;1.38;;
54263;SDS011;40178;53.042;6.406;2023-04-25T04:41:31;4.28;;;0.65;;
54263;SDS011;40178;53.042;6.406;2023-04-25T04:43:57;2.72;;;0.60;;
54263;SDS011;40178;53.042;6.406;2023-04-25T04:46:22;4.72;;;0.90;;
54263;SDS011;40178;53.042;6.406;2023-04-25T04:48:49;7.90;;;1.55;;
54263;SDS011;40178;53.042;6.406;2023-04-25T04:51:15;2.53;;;0.80;;
54263;SDS011;40178;53.042;6.406;2023-04-25T04:53:40;6.47;;;0.77;;
54263;SDS011;40178;53.042;6.406;2023-04-25T04:56:06;5.35;;;1.02;;
54263;SDS011;40178;53.042;6.406;2023-04-25T04:58:31;8.05;;;1.15;;
54263;SDS011;40178;53.042;6.406;2023-04-25T05:00:58;7.25;;;1.30;;
54263;SDS011;40178;53.042;6.406;2023-04-25T05:03:23;5.30;;;0.80;;
54263;SDS011;40178;53.042;6.406;2023-04-25T05:05:49;3.65;;;0.90;;
54263;SDS011;40178;53.042;6.406;2023-04-25T05:08:14;7.13;;;1.30;;
54263;SDS011;40178;53.042;6.406;2023-04-25T05:10:40;4.05;;;1.23;;
54263;SDS011;40178;53.042;6.406;2023-04-25T05:13:06;6.13;;;1.27;;
54263;SDS011;40178;53.042;6.406;2023-04-25T05:15:32;4.97;;;0.95;;
54263;SDS011;40178;53.042;6.406;2023-04-25T05:17:58;8.10;;;0.85;;
54263;SDS011;40178;53.042;6.406;2023-04-25T05:20:23;7.57;;;1.20;;
54263;SDS011;40178;53.042;6.406;2023-04-25T05:22:49;7.03;;;1.17;;
54263;SDS011;40178;53.042;6.406;2023-04-25T05:25:14;9.10;;;1.00;;
54263;SDS011;40178;53.042;6.406;2023-04-25T05:27:40;6.90;;;1.13;;
54263;SDS011;40178;53.042;6.406;2023-04-25T05:30:06;6.88;;;1.48;;
54263;SDS011;40178;53.042;6.406;2023-04-25T05:32:32;7.30;;;1.35;;
54263;SDS011;40178;53.042;6.406;2023-04-25T05:34:59;18.80;;;1.67;;
54263;SDS011;40178;53.042;6.406;2023-04-25T05:37:24;8.80;;;1.45;;
54263;SDS011;40178;53.042;6.406;2023-04-25T05:39:50;8.73;;;1.85;;
54263;SDS011;40178;53.042;6.406;2023-04-25T05:42:16;6.25;;;1.40;;
54263;SDS011;40178;53.042;6.406;2023-04-25T05:44:41;5.32;;;2.47;;
54263;SDS011;40178;53.042;6.406;2023-04-25T05:47:07;7.78;;;1.63;;
54263;SDS011;40178;53.042;6.406;2023-04-25T05:49:33;6.10;;;1.80;;
54263;SDS011;40178;53.042;6.406;2023-04-25T05:51:59;4.20;;;1.08;;
54263;SDS011;40178;53.042;6.406;2023-04-25T05:54:25;5.60;;;0.95;;
54263;SDS011;40178;53.042;6.406;2023-04-25T05:56:50;12.43;;;1.92;;
54263;SDS011;40178;53.042;6.406;2023-04-25T05:59:16;7.55;;;1.55;;
54263;SDS011;40178;53.042;6.406;2023-04-25T06:01:42;7.97;;;1.77;;
54263;SDS011;40178;53.042;6.406;2023-04-25T06:04:07;7.05;;;1.27;;
54263;SDS011;40178;53.042;6.406;2023-04-25T06:06:33;4.70;;;1.13;;
54263;SDS011;40178;53.042;6.406;2023-04-25T06:08:58;6.50;;;1.48;;
54263;SDS011;40178;53.042;6.406;2023-04-25T06:11:24;3.95;;;1.23;;
54263;SDS011;40178;53.042;6.406;2023-04-25T06:13:50;5.72;;;1.50;;
54263;SDS011;40178;53.042;6.406;2023-04-25T06:16:15;9.98;;;2.13;;
54263;SDS011;40178;53.042;6.406;2023-04-25T06:18:41;6.30;;;1.73;;
54263;SDS011;40178;53.042;6.406;2023-04-25T06:21:07;7.95;;;1.83;;
54263;SDS011;40178;53.042;6.406;2023-04-25T06:23:32;11.80;;;1.88;;
54263;SDS011;40178;53.042;6.406;2023-04-25T06:25:58;6.18;;;1.08;;
54263;SDS011;40178;53.042;6.406;2023-04-25T06:28:23;8.65;;;1.00;;
54263;SDS011;40178;53.042;6.406;2023-04-25T06:30:49;5.32;;;0.90;;
54263;SDS011;40178;53.042;6.406;2023-04-25T06:33:15;5.80;;;1.27;;
54263;SDS011;40178;53.042;6.406;2023-04-25T06:35:41;4.43;;;0.90;;
54263;SDS011;40178;53.042;6.406;2023-04-25T06:38:06;7.38;;;1.10;;
54263;SDS011;40178;53.042;6.406;2023-04-25T06:40:32;7.78;;;0.93;;
54263;SDS011;40178;53.042;6.406;2023-04-25T06:42:58;3.75;;;1.08;;
54263;SDS011;40178;53.042;6.406;2023-04-25T06:45:23;3.63;;;0.73;;
54263;SDS011;40178;53.042;6.406;2023-04-25T06:47:49;5.05;;;1.20;;
54263;SDS011;40178;53.042;6.406;2023-04-25T06:50:14;4.18;;;1.17;;
54263;SDS011;40178;53.042;6.406;2023-04-25T06:52:40;6.05;;;0.93;;
54263;SDS011;40178;53.042;6.406;2023-04-25T06:55:06;4.82;;;1.17;;
54263;SDS011;40178;53.042;6.406;2023-04-25T06:57:31;3.90;;;0.85;;
54263;SDS011;40178;53.042;6.406;2023-04-25T06:59:57;6.45;;;1.10;;
54263;SDS011;40178;53.042;6.406;2023-04-25T07:02:23;6.93;;;1.05;;
54263;SDS011;40178;53.042;6.406;2023-04-25T07:04:48;3.60;;;0.75;;
54263;SDS011;40178;53.042;6.406;2023-04-25T07:07:14;2.00;;;0.85;;
54263;SDS011;40178;53.042;6.406;2023-04-25T07:09:40;2.92;;;0.80;;
54263;SDS011;40178;53.042;6.406;2023-04-25T07:12:05;4.93;;;1.20;;
54263;SDS011;40178;53.042;6.406;2023-04-25T07:14:31;5.07;;;0.70;;
54263;SDS011;40178;53.042;6.406;2023-04-25T07:16:56;4.75;;;0.90;;
54263;SDS011;40178;53.042;6.406;2023-04-25T07:19:22;6.03;;;0.82;;
54263;SDS011;40178;53.042;6.406;2023-04-25T07:21:51;3.33;;;0.90;;
54263;SDS011;40178;53.042;6.406;2023-04-25T07:24:17;4.65;;;0.85;;
54263;SDS011;40178;53.042;6.406;2023-04-25T07:26:43;5.60;;;1.10;;
54263;SDS011;40178;53.042;6.406;2023-04-25T07:29:08;7.53;;;1.48;;
54263;SDS011;40178;53.042;6.406;2023-04-25T07:31:34;4.10;;;0.77;;
54263;SDS011;40178;53.042;6.406;2023-04-25T07:34:00;5.22;;;1.08;;
54263;SDS011;40178;53.042;6.406;2023-04-25T07:36:26;2.60;;;0.60;;
54263;SDS011;40178;53.042;6.406;2023-04-25T07:38:52;3.22;;;0.75;;
54263;SDS011;40178;53.042;6.406;2023-04-25T07:41:17;4.82;;;1.15;;
54263;SDS011;40178;53.042;6.406;2023-04-25T07:43:43;3.92;;;0.82;;
54263;SDS011;40178;53.042;6.406;2023-04-25T07:46:08;2.70;;;0.60;;
54263;SDS011;40178;53.042;6.406;2023-04-25T07:48:34;5.82;;;1.00;;
54263;SDS011;40178;53.042;6.406;2023-04-25T07:51:00;4.30;;;0.77;;
54263;SDS011;40178;53.042;6.406;2023-04-25T07:53:25;4.28;;;0.70;;
54263;SDS011;40178;53.042;6.406;2023-04-25T07:55:51;5.32;;;1.00;;
54263;SDS011;40178;53.042;6.406;2023-04-25T07:58:17;4.20;;;0.80;;
54263;SDS011;40178;53.042;6.406;2023-04-25T08:00:46;4.38;;;0.90;;
54263;SDS011;40178;53.042;6.406;2023-04-25T08:03:12;2.15;;;0.60;;
54263;SDS011;40178;53.042;6.406;2023-04-25T08:05:37;3.95;;;0.50;;
54263;SDS011;40178;53.042;6.406;2023-04-25T08:08:03;4.28;;;0.85;;
54263;SDS011;40178;53.042;6.406;2023-04-25T08:10:31;5.60;;;1.00;;
54263;SDS011;40178;53.042;6.406;2023-04-25T08:12:57;2.97;;;0.50;;
54263;SDS011;40178;53.042;6.406;2023-04-25T08:15:23;2.35;;;0.60;;
54263;SDS011;40178;53.042;6.406;2023-04-25T08:17:49;4.50;;;0.93;;
54263;SDS011;40178;53.042;6.406;2023-04-25T08:20:14;5.10;;;0.55;;
54263;SDS011;40178;53.042;6.406;2023-04-25T08:22:40;5.68;;;0.52;;
54263;SDS011;40178;53.042;6.406;2023-04-25T08:25:05;3.05;;;0.65;;
54263;SDS011;40178;53.042;6.406;2023-04-25T08:27:32;4.05;;;0.60;;
54263;SDS011;40178;53.042;6.406;2023-04-25T08:29:57;3.80;;;0.60;;
54263;SDS011;40178;53.042;6.406;2023-04-25T08:32:23;2.95;;;0.95;;
54263;SDS011;40178;53.042;6.406;2023-04-25T08:34:49;7.13;;;0.88;;
54263;SDS011;40178;53.042;6.406;2023-04-25T08:37:16;6.72;;;0.88;;
54263;SDS011;40178;53.042;6.406;2023-04-25T08:39:44;2.22;;;0.60;;
54263;SDS011;40178;53.042;6.406;2023-04-25T08:42:10;4.90;;;0.70;;
54263;SDS011;40178;53.042;6.406;2023-04-25T08:44:37;6.53;;;1.13;;
54263;SDS011;40178;53.042;6.406;2023-04-25T08:47:03;1.30;;;0.35;;
54263;SDS011;40178;53.042;6.406;2023-04-25T08:49:33;4.72;;;1.00;;
54263;SDS011;40178;53.042;6.406;2023-04-25T08:52:00;2.33;;;0.50;;
54263;SDS011;40178;53.042;6.406;2023-04-25T08:54:27;2.67;;;0.30;;
54263;SDS011;40178;53.042;6.406;2023-04-25T08:56:55;2.85;;;0.57;;
54263;SDS011;40178;53.042;6.406;2023-04-25T08:59:26;3.00;;;0.40;;
54263;SDS011;40178;53.042;6.406;2023-04-25T09:01:53;1.52;;;0.30;;
54263;SDS011;40178;53.042;6.406;2023-04-25T09:04:19;4.05;;;0.60;;
54263;SDS011;40178;53.042;6.406;2023-04-25T09:06:45;5.35;;;0.60;;
54263;SDS011;40178;53.042;6.406;2023-04-25T09:09:11;1.48;;;0.30;;
54263;SDS011;40178;53.042;6.406;2023-04-25T09:11:37;1.80;;;0.40;;
54263;SDS011;40178;53.042;6.406;2023-04-25T09:14:09;3.03;;;0.40;;
54263;SDS011;40178;53.042;6.406;2023-04-25T09:16:59;2.30;;;0.57;;
54263;SDS011;40178;53.042;6.406;2023-04-25T09:19:29;4.88;;;0.80;;
54263;SDS011;40178;53.042;6.406;2023-04-25T09:24:43;3.47;;;0.75;;
54263;SDS011;40178;53.042;6.406;2023-04-25T09:27:51;3.25;;;0.50;;
54263;SDS011;40178;53.042;6.406;2023-04-25T09:30:35;4.97;;;0.70;;
54263;SDS011;40178;53.042;6.406;2023-04-25T09:36:23;14.70;;;1.17;;
54263;SDS011;40178;53.042;6.406;2023-04-25T09:42:32;3.40;;;0.63;;
54263;SDS011;40178;53.042;6.406;2023-04-25T09:48:57;2.60;;;0.50;;
54263;SDS011;40178;53.042;6.406;2023-04-25T09:55:22;5.22;;;1.15;;
54263;SDS011;40178;53.042;6.406;2023-04-25T09:58:06;5.38;;;0.90;;
54263;SDS011;40178;53.042;6.406;2023-04-25T10:01:12;5.55;;;1.08;;
54263;SDS011;40178;53.042;6.406;2023-04-25T10:07:03;7.30;;;0.77;;
54263;SDS011;40178;53.042;6.406;2023-04-25T10:17:10;3.97;;;0.60;;
54263;SDS011;40178;53.042;6.406;2023-04-25T10:19:55;3.67;;;0.77;;
54263;SDS011;40178;53.042;6.406;2023-04-25T10:23:17;5.45;;;0.85;;
54263;SDS011;40178;53.042;6.406;2023-04-25T10:26:20;3.65;;;0.93;;
54263;SDS011;40178;53.042;6.406;2023-04-25T10:32:27;5.47;;;0.68;;
54263;SDS011;40178;53.042;6.406;2023-04-25T10:35:49;3.45;;;0.88;;
54263;SDS011;40178;53.042;6.406;2023-04-25T10:45:59;5.32;;;0.65;;
54263;SDS011;40178;53.042;6.406;2023-04-25T11:04:56;3.03;;;0.60;;
54263;SDS011;40178;53.042;6.406;2023-04-25T11:14:06;2.85;;;0.80;;
54263;SDS011;40178;53.042;6.406;2023-04-25T11:16:54;6.05;;;1.05;;
54263;SDS011;40178;53.042;6.406;2023-04-25T11:19:29;8.07;;;1.17;;
54263;SDS011;40178;53.042;6.406;2023-04-25T11:21:55;6.27;;;0.73;;
54263;SDS011;40178;53.042;6.406;2023-04-25T11:24:28;3.47;;;0.77;;
54263;SDS011;40178;53.042;6.406;2023-04-25T11:26:58;5.97;;;1.20;;
54263;SDS011;40178;53.042;6.406;2023-04-25T11:29:27;4.10;;;1.10;;
54263;SDS011;40178;53.042;6.406;2023-04-25T11:31:54;6.30;;;1.10;;
54263;SDS011;40178;53.042;6.406;2023-04-25T11:34:22;3.80;;;1.02;;
54263;SDS011;40178;53.042;6.406;2023-04-25T11:36:49;5.05;;;0.80;;
54263;SDS011;40178;53.042;6.406;2023-04-25T11:39:15;4.35;;;1.02;;
54263;SDS011;40178;53.042;6.406;2023-04-25T11:41:41;7.32;;;1.00;;
54263;SDS011;40178;53.042;6.406;2023-04-25T11:44:07;3.95;;;0.70;;
54263;SDS011;40178;53.042;6.406;2023-04-25T11:46:36;3.10;;;0.88;;
54263;SDS011;40178;53.042;6.406;2023-04-25T11:49:01;4.35;;;1.00;;
54263;SDS011;40178;53.042;6.406;2023-04-25T11:51:29;3.25;;;0.60;;
54263;SDS011;40178;53.042;6.406;2023-04-25T11:53:55;6.45;;;1.08;;
54263;SDS011;40178;53.042;6.406;2023-04-25T11:56:21;3.58;;;0.55;;
54263;SDS011;40178;53.042;6.406;2023-04-25T11:59:20;6.63;;;0.73;;
54263;SDS011;40178;53.042;6.406;2023-04-25T12:01:47;5.40;;;1.20;;
54263;SDS011;40178;53.042;6.406;2023-04-25T12:04:21;5.75;;;1.00;;
54263;SDS011;40178;53.042;6.406;2023-04-25T12:06:49;4.50;;;0.65;;
54263;SDS011;40178;53.042;6.406;2023-04-25T12:09:17;8.00;;;1.75;;
54263;SDS011;40178;53.042;6.406;2023-04-25T12:12:03;3.38;;;0.88;;
54263;SDS011;40178;53.042;6.406;2023-04-25T12:14:33;1.33;;;0.55;;
54263;SDS011;40178;53.042;6.406;2023-04-25T12:17:00;1.27;;;0.50;;
54263;SDS011;40178;53.042;6.406;2023-04-25T12:19:31;3.45;;;0.60;;
54263;SDS011;40178;53.042;6.406;2023-04-25T12:22:02;3.00;;;0.60;;
54263;SDS011;40178;53.042;6.406;2023-04-25T12:24:44;3.60;;;0.70;;
54263;SDS011;40178;53.042;6.406;2023-04-25T12:27:10;1.55;;;0.43;;
54263;SDS011;40178;53.042;6.406;2023-04-25T12:29:49;2.38;;;0.60;;
54263;SDS011;40178;53.042;6.406;2023-04-25T12:32:18;6.47;;;0.98;;
54263;SDS011;40178;53.042;6.406;2023-04-25T12:34:44;4.85;;;0.57;;
54263;SDS011;40178;53.042;6.406;2023-04-25T12:37:10;4.53;;;0.95;;
54263;SDS011;40178;53.042;6.406;2023-04-25T12:39:36;4.28;;;0.75;;
54263;SDS011;40178;53.042;6.406;2023-04-25T12:42:02;5.22;;;0.80;;
54263;SDS011;40178;53.042;6.406;2023-04-25T12:44:28;3.28;;;0.90;;
54263;SDS011;40178;53.042;6.406;2023-04-25T12:46:54;5.32;;;1.10;;
54263;SDS011;40178;53.042;6.406;2023-04-25T12:49:19;5.03;;;0.77;;
54263;SDS011;40178;53.042;6.406;2023-04-25T12:51:45;4.72;;;0.60;;
54263;SDS011;40178;53.042;6.406;2023-04-25T12:54:11;2.47;;;0.52;;
54263;SDS011;40178;53.042;6.406;2023-04-25T12:56:37;1.98;;;0.68;;
54263;SDS011;40178;53.042;6.406;2023-04-25T12:59:03;4.00;;;0.88;;
54263;SDS011;40178;53.042;6.406;2023-04-25T13:01:29;4.18;;;1.10;;
54263;SDS011;40178;53.042;6.406;2023-04-25T13:03:54;4.22;;;1.00;;
54263;SDS011;40178;53.042;6.406;2023-04-25T13:06:21;4.78;;;0.80;;
54263;SDS011;40178;53.042;6.406;2023-04-25T13:08:47;6.57;;;0.93;;
54263;SDS011;40178;53.042;6.406;2023-04-25T13:11:13;4.88;;;1.30;;
54263;SDS011;40178;53.042;6.406;2023-04-25T13:13:41;2.08;;;0.60;;
54263;SDS011;40178;53.042;6.406;2023-04-25T13:16:08;6.97;;;1.23;;
54263;SDS011;40178;53.042;6.406;2023-04-25T13:18:34;2.22;;;0.50;;
54263;SDS011;40178;53.042;6.406;2023-04-25T13:21:00;1.67;;;0.55;;
54263;SDS011;40178;53.042;6.406;2023-04-25T13:23:27;4.00;;;0.50;;
54263;SDS011;40178;53.042;6.406;2023-04-25T13:25:53;3.70;;;0.82;;
54263;SDS011;40178;53.042;6.406;2023-04-25T13:28:20;7.22;;;1.27;;
54263;SDS011;40178;53.042;6.406;2023-04-25T13:30:46;4.10;;;0.80;;
54263;SDS011;40178;53.042;6.406;2023-04-25T13:33:13;3.88;;;0.70;;
54263;SDS011;40178;53.042;6.406;2023-04-25T13:35:39;5.10;;;1.23;;
54263;SDS011;40178;53.042;6.406;2023-04-25T13:38:05;7.30;;;1.20;;
54263;SDS011;40178;53.042;6.406;2023-04-25T13:40:31;6.35;;;1.20;;
54263;SDS011;40178;53.042;6.406;2023-04-25T13:42:57;2.90;;;0.63;;
54263;SDS011;40178;53.042;6.406;2023-04-25T13:45:23;3.13;;;0.70;;
54263;SDS011;40178;53.042;6.406;2023-04-25T13:47:48;3.53;;;1.10;;
54263;SDS011;40178;53.042;6.406;2023-04-25T13:50:15;1.98;;;0.50;;
54263;SDS011;40178;53.042;6.406;2023-04-25T13:52:41;4.20;;;0.82;;
54263;SDS011;40178;53.042;6.406;2023-04-25T13:55:07;3.38;;;0.75;;
54263;SDS011;40178;53.042;6.406;2023-04-25T13:57:33;2.80;;;0.60;;
54263;SDS011;40178;53.042;6.406;2023-04-25T14:00:00;3.17;;;0.70;;
54263;SDS011;40178;53.042;6.406;2023-04-25T14:02:31;3.63;;;0.80;;
54263;SDS011;40178;53.042;6.406;2023-04-25T14:04:56;5.72;;;1.05;;
54263;SDS011;40178;53.042;6.406;2023-04-25T14:07:22;5.13;;;1.00;;
54263;SDS011;40178;53.042;6.406;2023-04-25T14:09:47;1.15;;;0.60;;
54263;SDS011;40178;53.042;6.406;2023-04-25T14:12:13;3.60;;;0.57;;
54263;SDS011;40178;53.042;6.406;2023-04-25T14:14:39;4.78;;;0.80;;
54263;SDS011;40178;53.042;6.406;2023-04-25T14:17:05;4.05;;;0.55;;
54263;SDS011;40178;53.042;6.406;2023-04-25T14:19:31;3.55;;;0.75;;
54263;SDS011;40178;53.042;6.406;2023-04-25T14:21:56;4.65;;;0.73;;
54263;SDS011;40178;53.042;6.406;2023-04-25T14:24:22;3.05;;;0.52;;
54263;SDS011;40178;53.042;6.406;2023-04-25T14:26:48;5.32;;;0.70;;
54263;SDS011;40178;53.042;6.406;2023-04-25T14:29:13;3.88;;;0.70;;
54263;SDS011;40178;53.042;6.406;2023-04-25T14:31:39;6.68;;;1.35;;
54263;SDS011;40178;53.042;6.406;2023-04-25T14:34:05;6.93;;;1.00;;
54263;SDS011;40178;53.042;6.406;2023-04-25T14:36:32;3.10;;;0.82;;
54263;SDS011;40178;53.042;6.406;2023-04-25T14:38:58;4.40;;;0.98;;
54263;SDS011;40178;53.042;6.406;2023-04-25T14:41:24;3.72;;;0.73;;
54263;SDS011;40178;53.042;6.406;2023-04-25T14:43:50;2.65;;;0.52;;
54263;SDS011;40178;53.042;6.406;2023-04-25T14:46:17;2.20;;;0.70;;
54263;SDS011;40178;53.042;6.406;2023-04-25T14:48:44;5.15;;;1.17;;
54263;SDS011;40178;53.042;6.406;2023-04-25T14:51:10;3.80;;;0.52;;
54263;SDS011;40178;53.042;6.406;2023-04-25T14:53:36;2.05;;;0.40;;
54263;SDS011;40178;53.042;6.406;2023-04-25T14:56:01;3.33;;;0.52;;
54263;SDS011;40178;53.042;6.406;2023-04-25T14:58:27;4.50;;;0.43;;
54263;SDS011;40178;53.042;6.406;2023-04-25T15:00:53;3.65;;;0.63;;
54263;SDS011;40178;53.042;6.406;2023-04-25T15:03:19;3.55;;;0.80;;
54263;SDS011;40178;53.042;6.406;2023-04-25T15:05:44;2.88;;;0.50;;
54263;SDS011;40178;53.042;6.406;2023-04-25T15:08:10;3.83;;;0.70;;
54263;SDS011;40178;53.042;6.406;2023-04-25T15:10:35;2.58;;;0.50;;
54263;SDS011;40178;53.042;6.406;2023-04-25T15:13:01;5.68;;;0.70;;
54263;SDS011;40178;53.042;6.406;2023-04-25T15:15:28;6.05;;;0.90;;
54263;SDS011;40178;53.042;6.406;2023-04-25T15:17:54;5.32;;;0.77;;
54263;SDS011;40178;53.042;6.406;2023-04-25T15:20:21;5.05;;;0.90;;
54263;SDS011;40178;53.042;6.406;2023-04-25T15:22:47;5.90;;;1.05;;
54263;SDS011;40178;53.042;6.406;2023-04-25T15:25:13;8.10;;;1.40;;
54263;SDS011;40178;53.042;6.406;2023-04-25T15:27:40;6.05;;;1.13;;
54263;SDS011;40178;53.042;6.406;2023-04-25T15:30:09;3.92;;;0.65;;
54263;SDS011;40178;53.042;6.406;2023-04-25T15:32:40;4.57;;;1.00;;
54263;SDS011;40178;53.042;6.406;2023-04-25T15:35:06;5.07;;;0.60;;
54263;SDS011;40178;53.042;6.406;2023-04-25T15:37:33;5.05;;;0.90;;
54263;SDS011;40178;53.042;6.406;2023-04-25T15:40:01;7.72;;;1.23;;
54263;SDS011;40178;53.042;6.406;2023-04-25T15:42:37;6.07;;;0.57;;
54263;SDS011;40178;53.042;6.406;2023-04-25T15:45:05;3.97;;;1.00;;
54263;SDS011;40178;53.042;6.406;2023-04-25T15:47:33;4.80;;;0.60;;
54263;SDS011;40178;53.042;6.406;2023-04-25T15:50:00;3.92;;;1.10;;